Ouargla, Algeria
Current Conditions -  °F | °C
As of 3:00 PM on Sunday 23 Nov 2014 (Local Time) from DAUU Reporting Station
Scattered Clouds Scattered Clouds  
Wind Chill: 82°   Ceiling: Unl
Heat Index: 82°   Visibility: 6mi
Dew Point: 39°   Wind: 6mph
Humidity: 21%   Direction: 150°SSE
Pressure: 30.15"   Gusts: NA
Location:  31.92°N, 5.4°E
Report Text: DAUU 231400Z 15005KT 9999 FEW040 SCT100 28/04 Q1021
Loading
Personal Weather Stations






























Interactive Weather Map New forecast layout! Learn more

10-Day Weather Forecast

Advertisements
Track Severe Weather on mobile